createdAt,value
2023-02-02T00:00:38.315Z,9.45
2023-02-02T00:06:01.214Z,9.61
2023-02-02T00:11:04.824Z,9.66
2023-02-02T00:16:26.471Z,9.75
2023-02-02T00:21:29.783Z,8.91
2023-02-02T00:26:32.777Z,6.95
2023-02-02T00:31:35.464Z,7.36
2023-02-02T00:36:38.569Z,8.38
2023-02-02T00:41:41.761Z,8.90
2023-02-02T00:46:44.443Z,9.17
2023-02-02T00:51:47.089Z,9.43
2023-02-02T00:56:49.683Z,9.54
2023-02-02T01:01:52.573Z,8.34
2023-02-02T01:06:55.267Z,6.20
2023-02-02T01:11:58.192Z,5.98
2023-02-02T01:17:00.847Z,6.90
2023-02-02T01:22:03.711Z,7.21
2023-02-02T01:27:06.470Z,7.54
2023-02-02T01:32:09.056Z,7.71
2023-02-02T01:37:11.671Z,7.87
2023-02-02T01:42:20.056Z,7.80
2023-02-02T01:47:27.325Z,7.72
2023-02-02T01:52:32.616Z,7.85
2023-02-02T01:57:42.129Z,8.01
2023-02-02T02:02:48.824Z,8.21
2023-02-02T02:07:54.196Z,8.24
2023-02-02T02:12:57.750Z,8.13
2023-02-02T02:18:38.902Z,8.09
2023-02-02T02:24:41.716Z,8.12
2023-02-02T02:30:09.114Z,8.32
2023-02-02T02:35:31.488Z,8.60
2023-02-02T02:40:48.109Z,8.76
2023-02-02T02:45:50.969Z,8.91
2023-02-02T02:50:53.563Z,8.92
2023-02-02T02:56:17.937Z,8.82
2023-02-02T03:01:34.791Z,8.81
2023-02-02T03:07:00.079Z,8.97
2023-02-02T03:12:03.676Z,9.15
2023-02-02T03:17:06.235Z,9.30
2023-02-02T03:22:08.866Z,9.23
2023-02-02T03:27:11.463Z,9.06
2023-02-02T03:32:14.082Z,8.98
2023-02-02T03:37:16.703Z,8.90
2023-02-02T03:42:19.245Z,9.03
2023-02-02T03:47:22.198Z,9.05
2023-02-02T03:52:26.022Z,9.17
2023-02-02T03:57:28.580Z,9.12
2023-02-02T04:02:31.148Z,9.13
2023-02-02T04:07:33.738Z,9.20
2023-02-02T04:12:36.390Z,9.23
2023-02-02T04:17:38.980Z,9.24
2023-02-02T04:22:41.572Z,9.28
2023-02-02T04:27:44.228Z,9.20
2023-02-02T04:32:48.099Z,8.97
2023-02-02T04:37:50.681Z,8.99
2023-02-02T04:42:53.234Z,9.31
2023-02-02T04:47:55.827Z,9.54
2023-02-02T04:52:58.484Z,9.48
2023-02-02T04:58:03.126Z,9.47
2023-02-02T05:03:05.729Z,9.53
2023-02-02T05:08:09.723Z,9.02
2023-02-02T05:13:12.343Z,6.97
2023-02-02T05:18:15.202Z,6.96
2023-02-02T05:23:17.907Z,8.21
2023-02-02T05:28:21.962Z,8.82
2023-02-02T05:33:24.585Z,8.89
2023-02-02T05:38:27.228Z,9.04
2023-02-02T05:43:31.703Z,9.29
2023-02-02T05:48:34.324Z,9.45
2023-02-02T05:53:37.971Z,9.39
2023-02-02T05:58:40.545Z,9.42
2023-02-02T06:03:43.212Z,8.71
2023-02-02T06:08:45.980Z,6.58
2023-02-02T06:13:48.628Z,6.02
2023-02-02T06:18:52.336Z,7.62
2023-02-02T06:23:54.900Z,8.53
2023-02-02T06:28:57.631Z,8.99
2023-02-02T06:34:00.357Z,9.47
2023-02-02T06:39:05.837Z,9.82
2023-02-02T06:44:08.546Z,9.19
2023-02-02T06:49:11.323Z,7.08
2023-02-02T06:54:14.512Z,5.76
2023-02-02T06:59:17.077Z,5.76
2023-02-02T07:04:20.098Z,7.56
2023-02-02T07:09:22.728Z,8.54
2023-02-02T07:14:25.393Z,8.83
2023-02-02T07:19:28.037Z,9.11
2023-02-02T07:24:30.612Z,9.46
2023-02-02T07:29:33.167Z,9.72
2023-02-02T07:34:39.755Z,8.51
2023-02-02T07:39:43.279Z,6.64
2023-02-02T07:44:45.893Z,6.56
2023-02-02T07:49:48.485Z,7.94
2023-02-02T07:54:51.049Z,8.56
2023-02-02T07:59:54.530Z,9.00
2023-02-02T08:04:57.553Z,9.58
2023-02-02T08:10:00.181Z,9.73
2023-02-02T08:15:02.805Z,8.11
2023-02-02T08:20:07.588Z,6.56
2023-02-02T08:25:10.210Z,6.43
2023-02-02T08:30:13.556Z,8.30
2023-02-02T08:35:17.178Z,9.33
2023-02-02T08:40:19.964Z,9.81
2023-02-02T08:46:03.303Z,10.05
2023-02-02T08:50:45.215Z,10.13
2023-02-02T08:55:48.693Z,9.54
2023-02-02T09:00:51.322Z,7.60
2023-02-02T09:05:54.164Z,6.89
2023-02-02T09:10:56.739Z,8.29
2023-02-02T09:16:01.068Z,9.12
2023-02-02T09:21:06.737Z,9.45
2023-02-02T09:26:23.700Z,9.74
2023-02-02T09:31:27.050Z,9.91
2023-02-02T09:36:30.443Z,9.75
2023-02-02T09:41:39.204Z,8.45
2023-02-02T09:46:48.290Z,8.84
2023-02-02T09:51:59.703Z,9.25
2023-02-02T09:57:10.156Z,9.49
2023-02-02T10:02:22.091Z,9.09
2023-02-02T10:07:33.295Z,8.79
2023-02-02T10:12:40.794Z,9.67
2023-02-02T10:18:06.217Z,10.06
2023-02-02T10:23:21.534Z,9.39
2023-02-02T10:28:43.198Z,8.57
2023-02-02T10:34:02.678Z,9.87
2023-02-02T10:39:32.086Z,10.34
2023-02-02T10:44:47.822Z,8.99
2023-02-02T10:50:00.187Z,9.54
2023-02-02T10:55:18.285Z,10.17
2023-02-02T11:00:23.069Z,9.92
2023-02-02T11:05:47.900Z,8.59
2023-02-02T11:10:54.744Z,9.60
2023-02-02T11:16:16.043Z,10.29
2023-02-02T11:21:39.647Z,9.83
2023-02-02T11:27:01.076Z,7.99
2023-02-02T11:32:27.203Z,7.83
2023-02-02T11:37:37.305Z,9.35
2023-02-02T11:42:46.500Z,10.01
2023-02-02T11:47:51.698Z,9.92
2023-02-02T11:52:55.091Z,8.56
2023-02-02T11:58:35.536Z,7.34
2023-02-02T12:03:39.710Z,8.34
2023-02-02T12:08:42.543Z,8.79
2023-02-02T12:14:26.823Z,8.37
2023-02-02T12:19:47.580Z,7.23
2023-02-02T12:25:14.667Z,8.45
2023-02-02T12:30:44.749Z,9.32
2023-02-02T12:36:09.924Z,8.10
2023-02-02T12:41:57.818Z,7.70
2023-02-02T12:47:37.960Z,8.88
2023-02-02T12:52:59.002Z,8.52
2023-02-02T12:58:27.804Z,7.15
2023-02-02T13:03:45.253Z,8.21
2023-02-02T13:08:55.948Z,8.13
2023-02-02T13:14:05.259Z,6.74
2023-02-02T13:19:13.801Z,6.52
2023-02-02T13:24:26.490Z,7.57
2023-02-02T13:29:51.837Z,7.97
2023-02-02T13:35:16.111Z,8.07
2023-02-02T13:40:39.189Z,8.51
2023-02-02T13:45:49.526Z,8.82
2023-02-02T13:51:23.235Z,8.49
2023-02-02T13:56:43.074Z,6.65
2023-02-02T14:01:50.023Z,6.82
2023-02-02T14:07:13.529Z,8.28
2023-02-02T14:12:29.190Z,8.78
2023-02-02T14:17:31.758Z,9.06
2023-02-02T14:22:38.175Z,8.35
2023-02-02T14:27:54.395Z,6.56
2023-02-02T14:33:39.908Z,7.22
2023-02-02T14:39:08.368Z,8.18
2023-02-02T14:44:11.350Z,8.67
2023-02-02T14:49:18.538Z,8.97
2023-02-02T14:54:31.957Z,8.44
2023-02-02T14:59:40.231Z,6.51
2023-02-02T15:04:43.576Z,5.81
2023-02-02T15:09:46.422Z,6.92
2023-02-02T15:14:49.163Z,7.73
2023-02-02T15:20:03.888Z,8.37
2023-02-02T15:25:19.572Z,8.79
2023-02-02T15:30:23.768Z,8.87
2023-02-02T15:35:30.935Z,6.92
2023-02-02T15:40:37.349Z,5.60
2023-02-02T15:46:02.160Z,6.46
2023-02-02T15:51:14.974Z,7.18
2023-02-02T15:56:39.115Z,7.41
2023-02-02T16:01:49.182Z,7.61
2023-02-02T16:06:52.197Z,7.78
2023-02-02T16:11:54.853Z,7.77
2023-02-02T16:17:14.924Z,7.85
2023-02-02T16:22:25.466Z,7.98
2023-02-02T16:27:31.316Z,7.94
2023-02-02T16:32:37.140Z,6.99
2023-02-02T16:37:39.688Z,5.04
2023-02-02T16:42:44.136Z,4.66
2023-02-02T16:47:46.851Z,5.93
2023-02-02T16:53:03.422Z,6.81
2023-02-02T16:58:06.138Z,7.39
2023-02-02T17:03:12.755Z,7.61
2023-02-02T17:08:26.715Z,7.85
2023-02-02T17:13:32.474Z,7.93
2023-02-02T17:18:38.075Z,7.70
2023-02-02T17:23:41.368Z,5.99
2023-02-02T17:28:44.488Z,4.99
2023-02-02T17:33:47.023Z,6.19
2023-02-02T17:38:49.634Z,6.84
2023-02-02T17:43:53.418Z,7.37
2023-02-02T17:48:57.168Z,7.71
2023-02-02T17:54:00.524Z,7.92
2023-02-02T17:59:03.204Z,8.08
2023-02-02T18:04:06.255Z,7.31
2023-02-02T18:09:09.634Z,5.22
2023-02-02T18:14:13.255Z,3.82
2023-02-02T18:19:15.923Z,3.63
2023-02-02T18:24:18.608Z,5.20
2023-02-02T18:29:22.265Z,6.16
2023-02-02T18:34:28.512Z,6.64
2023-02-02T18:39:32.408Z,7.15
2023-02-02T18:44:36.392Z,7.54
2023-02-02T18:49:39.012Z,7.79
2023-02-02T18:54:41.769Z,7.11
2023-02-02T18:59:44.618Z,4.96
2023-02-02T19:05:08.410Z,5.30
2023-02-02T19:10:12.175Z,6.04
2023-02-02T19:15:16.532Z,6.39
2023-02-02T19:20:23.445Z,6.72
2023-02-02T19:25:26.456Z,7.04
2023-02-02T19:30:29.274Z,7.31
2023-02-02T19:35:31.995Z,7.37
2023-02-02T19:40:35.148Z,7.40
2023-02-02T19:45:39.591Z,7.64
2023-02-02T19:50:43.623Z,7.56
2023-02-02T19:55:46.924Z,5.63
2023-02-02T20:00:51.872Z,4.02
2023-02-02T20:05:57.099Z,3.79
2023-02-02T20:11:05.927Z,5.18
2023-02-02T20:16:37.835Z,6.10
2023-02-02T20:21:46.264Z,6.97
2023-02-02T20:26:50.959Z,7.56
2023-02-02T20:31:58.038Z,7.82
2023-02-02T20:37:24.326Z,7.00
2023-02-02T20:42:27.540Z,4.70
2023-02-02T20:47:31.280Z,4.15
2023-02-02T20:52:34.239Z,5.40
2023-02-02T20:57:38.624Z,6.19
2023-02-02T21:02:41.375Z,6.67
2023-02-02T21:07:43.983Z,6.97
2023-02-02T21:12:50.371Z,6.97
2023-02-02T21:17:54.077Z,6.23
2023-02-02T21:22:57.165Z,4.25
2023-02-02T21:28:00.363Z,3.12
2023-02-02T21:33:05.169Z,3.80
2023-02-02T21:38:14.112Z,5.00
2023-02-02T21:43:18.239Z,5.90
2023-02-02T21:48:27.748Z,6.29
2023-02-02T21:53:33.271Z,5.76
2023-02-02T21:58:40.000Z,3.77
2023-02-02T22:03:50.233Z,2.67
2023-02-02T22:09:00.052Z,3.87
2023-02-02T22:14:18.196Z,5.14
2023-02-02T22:19:29.001Z,5.95
2023-02-02T22:24:31.578Z,6.38
2023-02-02T22:29:35.221Z,4.96
2023-02-02T22:34:38.003Z,3.16
2023-02-02T22:39:42.877Z,2.14
2023-02-02T22:44:45.560Z,2.14
2023-02-02T22:49:48.148Z,3.79
2023-02-02T22:54:50.806Z,4.83
2023-02-02T22:59:53.415Z,5.49
2023-02-02T23:04:55.999Z,5.21
2023-02-02T23:09:59.147Z,3.34
2023-02-02T23:15:01.908Z,2.11
2023-02-02T23:20:07.394Z,1.30
2023-02-02T23:25:11.064Z,1.52
2023-02-02T23:30:14.748Z,3.52
2023-02-02T23:35:17.414Z,4.80
2023-02-02T23:40:20.188Z,5.49
2023-02-02T23:45:22.924Z,4.22
2023-02-02T23:50:25.820Z,2.56
2023-02-02T23:55:28.964Z,1.57
